Junction City, GA (31812)

2:04 PM EST on November 23, 2014 (GMT -0500)
RoseParadiseFarm Hwy 36 | Change Station
CLOSE
Current Station
Personal Weather Station
Location: Waverly Hall, GA
Elevation: 804 ft
Nearby Weather Stations

Elev 804 ft 32.70 °N, 84.70 °W | Updated 1 second ago

Overcast
Overcast
62.8 °F
Feels Like 62.8 °F
N
1.0
Wind Variable Wind from East
Gusts 3.0 mph

Today
High -- | Low -- °F
--% Chance of Precip.
Yesterday
High -- | Low -- °F
Precip. -- in
7:14 AM 5:33 PM
New Moon, 2% visible
Pressure 29.79 in
Visibility 1.8 miles
Clouds Overcast 400 ft
Dew Point 62 °F
Humidity 98%
Rainfall 1.36 in
Snow Depth Not available.
UV 1 out of 12
Pollen .30 out of 12
Air Quality Not available.
Flu Activity Not available.
METAR KOPN 231855Z AUTO 13008KT 1 3/4SM DZ OVC004 17/16 A2979 RMK AO2 LTG DSNT SW

More Conditions Fewer Conditions

Pressure 29.79 in
Visibility 1.8 miles
Clouds Overcast 400 ft
Dew Point 62 °F
Humidity 98%
Rainfall 1.36 in
Snow Depth Not available.
UV 1 out of 12
Pollen .30 out of 12
Air Quality Not available.
Flu Activity Not available.
METAR KOPN 231855Z AUTO 13008KT 1 3/4SM DZ OVC004 17/16 A2979 RMK AO2 LTG DSNT SW

More Conditions Fewer Conditions

10-Day Weather Forecast

Almanac

Astronomy

Nov. 23, 2014 Rise Set
Actual Time
Civil Twilight
Nautical Twilight
Astronomical Twilight
Moon
Length of Visible Light
Length of Day
Tomorrow will be .
, % of the Moon is Illuminated

Today's Extremes

State Highs State Lows

Community

WunderPhotos

Upload Photos

1,773,135 photos uploaded!

WunderBlogs® & News

Nearby

Air Quality

  Air Quality AQ Index Pollutant
Not available.

Snow Depth

Station Depth Elevation

Earthquake Activity

City Distance Mag. Time & Date
Minimum magnitude displayed is 2.5.

Coastal Water Temperatures

Place Temperature

Nearby Weather Stations